sensor_id;sensor_type;location;lat;lon;timestamp;pressure;altitude;pressure_sealevel;temperature;humidity
41632;BME280;37452;51.938;4.624;2022-07-12T00:01:01;77227.81;;;-142.75;100.00
41632;BME280;37452;51.938;4.624;2022-07-12T00:03:27;77227.81;;;-142.75;100.00
41632;BME280;37452;51.938;4.624;2022-07-12T00:05:53;77227.81;;;-142.75;100.00
41632;BME280;37452;51.938;4.624;2022-07-12T00:08:18;77225.84;;;-142.75;100.00
41632;BME280;37452;51.938;4.624;2022-07-12T00:10:43;77227.81;;;-142.75;100.00
41632;BME280;37452;51.938;4.624;2022-07-12T00:13:09;77229.78;;;-142.75;100.00
41632;BME280;37452;51.938;4.624;2022-07-12T00:15:35;77223.88;;;-142.75;100.00
41632;BME280;37452;51.938;4.624;2022-07-12T00:18:01;77227.81;;;-142.75;100.00
41632;BME280;37452;51.938;4.624;2022-07-12T00:20:26;77223.88;;;-142.75;100.00
41632;BME280;37452;51.938;4.624;2022-07-12T00:22:51;77227.81;;;-142.75;100.00
41632;BME280;37452;51.938;4.624;2022-07-12T00:25:16;77239.63;;;-142.75;100.00
41632;BME280;37452;51.938;4.624;2022-07-12T00:27:41;77239.63;;;-142.75;100.00
41632;BME280;37452;51.938;4.624;2022-07-12T00:30:07;77247.50;;;-142.75;100.00
41632;BME280;37452;51.938;4.624;2022-07-12T00:32:32;77247.50;;;-142.75;100.00
41632;BME280;37452;51.938;4.624;2022-07-12T00:34:58;77253.41;;;-142.75;100.00
41632;BME280;37452;51.938;4.624;2022-07-12T00:37:25;77263.25;;;-142.75;100.00
41632;BME280;37452;51.938;4.624;2022-07-12T00:39:50;77261.28;;;-142.75;100.00
41632;BME280;37452;51.938;4.624;2022-07-12T00:42:16;77261.28;;;-142.75;100.00
41632;BME280;37452;51.938;4.624;2022-07-12T00:44:41;77267.19;;;-142.75;100.00
41632;BME280;37452;51.938;4.624;2022-07-12T00:47:06;77275.06;;;-142.75;100.00
41632;BME280;37452;51.938;4.624;2022-07-12T00:49:31;77279.00;;;-142.75;100.00
41632;BME280;37452;51.938;4.624;2022-07-12T00:51:56;77277.03;;;-142.75;100.00
41632;BME280;37452;51.938;4.624;2022-07-12T00:54:22;77280.97;;;-142.75;100.00
41632;BME280;37452;51.938;4.624;2022-07-12T00:56:48;77279.00;;;-142.75;100.00
41632;BME280;37452;51.938;4.624;2022-07-12T00:59:13;77277.03;;;-142.75;100.00
41632;BME280;37452;51.938;4.624;2022-07-12T01:01:38;77286.88;;;-142.75;100.00
41632;BME280;37452;51.938;4.624;2022-07-12T01:04:04;77292.78;;;-142.75;100.00
41632;BME280;37452;51.938;4.624;2022-07-12T01:06:29;77296.72;;;-142.75;100.00
41632;BME280;37452;51.938;4.624;2022-07-12T01:08:56;77290.81;;;-142.75;100.00
41632;BME280;37452;51.938;4.624;2022-07-12T01:11:21;77284.91;;;-142.75;100.00
41632;BME280;37452;51.938;4.624;2022-07-12T01:13:47;77282.94;;;-142.75;100.00
41632;BME280;37452;51.938;4.624;2022-07-12T01:16:13;77280.97;;;-142.75;100.00
41632;BME280;37452;51.938;4.624;2022-07-12T01:18:39;77280.97;;;-142.75;100.00
41632;BME280;37452;51.938;4.624;2022-07-12T01:21:05;77271.13;;;-142.75;100.00
41632;BME280;37452;51.938;4.624;2022-07-12T01:23:32;77271.13;;;-142.75;100.00
41632;BME280;37452;51.938;4.624;2022-07-12T01:25:59;77275.06;;;-142.75;100.00
41632;BME280;37452;51.938;4.624;2022-07-12T01:28:24;77269.16;;;-142.75;100.00
41632;BME280;37452;51.938;4.624;2022-07-12T01:30:49;77271.13;;;-142.75;100.00
41632;BME280;37452;51.938;4.624;2022-07-12T01:33:15;77277.03;;;-142.75;100.00
41632;BME280;37452;51.938;4.624;2022-07-12T01:35:41;77279.00;;;-142.75;100.00
41632;BME280;37452;51.938;4.624;2022-07-12T01:38:06;77294.75;;;-142.75;100.00
41632;BME280;37452;51.938;4.624;2022-07-12T01:40:31;77292.78;;;-142.75;100.00
41632;BME280;37452;51.938;4.624;2022-07-12T01:42:57;77292.78;;;-142.75;100.00
41632;BME280;37452;51.938;4.624;2022-07-12T01:45:22;77298.69;;;-142.75;100.00
41632;BME280;37452;51.938;4.624;2022-07-12T01:47:47;77310.50;;;-142.75;100.00
41632;BME280;37452;51.938;4.624;2022-07-12T01:50:14;77322.31;;;-142.75;100.00
41632;BME280;37452;51.938;4.624;2022-07-12T01:52:40;77349.88;;;-142.75;100.00
41632;BME280;37452;51.938;4.624;2022-07-12T01:55:06;77361.69;;;-142.75;100.00
41632;BME280;37452;51.938;4.624;2022-07-12T01:57:31;77385.31;;;-142.75;100.00
41632;BME280;37452;51.938;4.624;2022-07-12T01:59:57;77389.25;;;-142.75;100.00
41632;BME280;37452;51.938;4.624;2022-07-12T02:02:24;77393.19;;;-142.75;100.00
41632;BME280;37452;51.938;4.624;2022-07-12T02:04:50;77387.28;;;-142.75;100.00
41632;BME280;37452;51.938;4.624;2022-07-12T02:07:15;77389.25;;;-142.75;100.00
41632;BME280;37452;51.938;4.624;2022-07-12T02:09:40;77373.50;;;-142.75;100.00
41632;BME280;37452;51.938;4.624;2022-07-12T02:12:06;77373.50;;;-142.75;100.00
41632;BME280;37452;51.938;4.624;2022-07-12T02:14:31;77369.56;;;-142.75;100.00
41632;BME280;37452;51.938;4.624;2022-07-12T02:16:56;77377.44;;;-142.75;100.00
41632;BME280;37452;51.938;4.624;2022-07-12T02:19:21;77367.59;;;-142.75;100.00
41632;BME280;37452;51.938;4.624;2022-07-12T02:21:47;77361.69;;;-142.75;100.00
41632;BME280;37452;51.938;4.624;2022-07-12T02:24:12;77369.56;;;-142.75;100.00
41632;BME280;37452;51.938;4.624;2022-07-12T02:26:37;77381.38;;;-142.75;100.00
41632;BME280;37452;51.938;4.624;2022-07-12T02:29:03;77389.25;;;-142.75;100.00
41632;BME280;37452;51.938;4.624;2022-07-12T02:31:29;77393.19;;;-142.75;100.00
41632;BME280;37452;51.938;4.624;2022-07-12T02:33:54;77385.31;;;-142.75;100.00
41632;BME280;37452;51.938;4.624;2022-07-12T02:36:19;77381.38;;;-142.75;100.00
41632;BME280;37452;51.938;4.624;2022-07-12T02:38:44;77373.50;;;-142.75;100.00
41632;BME280;37452;51.938;4.624;2022-07-12T02:41:10;77365.63;;;-142.75;100.00
41632;BME280;37452;51.938;4.624;2022-07-12T02:43:35;77367.59;;;-142.75;100.00
41632;BME280;37452;51.938;4.624;2022-07-12T02:48:28;77369.56;;;-142.75;100.00
41632;BME280;37452;51.938;4.624;2022-07-12T02:50:53;77373.50;;;-142.75;100.00
41632;BME280;37452;51.938;4.624;2022-07-12T02:53:18;77377.44;;;-142.75;100.00
41632;BME280;37452;51.938;4.624;2022-07-12T02:55:44;77379.41;;;-142.75;100.00
41632;BME280;37452;51.938;4.624;2022-07-12T02:58:09;77381.38;;;-142.75;100.00
41632;BME280;37452;51.938;4.624;2022-07-12T03:00:36;77381.38;;;-142.75;100.00
41632;BME280;37452;51.938;4.624;2022-07-12T03:03:02;77385.31;;;-142.75;100.00
41632;BME280;37452;51.938;4.624;2022-07-12T03:05:27;77391.22;;;-142.75;100.00
41632;BME280;37452;51.938;4.624;2022-07-12T03:07:52;77391.22;;;-142.75;100.00
41632;BME280;37452;51.938;4.624;2022-07-12T03:10:18;77406.97;;;-142.75;100.00
41632;BME280;37452;51.938;4.624;2022-07-12T03:12:43;77408.94;;;-142.75;100.00
41632;BME280;37452;51.938;4.624;2022-07-12T03:15:08;77406.97;;;-142.75;100.00
41632;BME280;37452;51.938;4.624;2022-07-12T03:17:33;77414.84;;;-142.75;100.00
41632;BME280;37452;51.938;4.624;2022-07-12T03:19:59;77432.56;;;-142.75;100.00
41632;BME280;37452;51.938;4.624;2022-07-12T03:22:24;77436.50;;;-142.75;100.00
41632;BME280;37452;51.938;4.624;2022-07-12T03:24:50;77436.50;;;-142.75;100.00
41632;BME280;37452;51.938;4.624;2022-07-12T03:27:15;77438.47;;;-142.75;100.00
41632;BME280;37452;51.938;4.624;2022-07-12T03:29:40;77462.13;;;-142.75;100.00
41632;BME280;37452;51.938;4.624;2022-07-12T03:32:06;77468.03;;;-142.75;100.00
41632;BME280;37452;51.938;4.624;2022-07-12T03:34:31;77487.72;;;-142.75;100.00
41632;BME280;37452;51.938;4.624;2022-07-12T03:36:57;77493.63;;;-142.75;100.00
41632;BME280;37452;51.938;4.624;2022-07-12T03:39:22;77495.59;;;-142.75;100.00
41632;BME280;37452;51.938;4.624;2022-07-12T03:41:47;77489.69;;;-142.75;100.00
41632;BME280;37452;51.938;4.624;2022-07-12T03:44:12;77497.56;;;-142.75;100.00
41632;BME280;37452;51.938;4.624;2022-07-12T03:46:37;77511.34;;;-142.75;100.00
41632;BME280;37452;51.938;4.624;2022-07-12T03:49:03;77515.28;;;-142.75;100.00
41632;BME280;37452;51.938;4.624;2022-07-12T03:51:28;77503.47;;;-142.75;100.00
41632;BME280;37452;51.938;4.624;2022-07-12T03:53:53;77497.56;;;-142.75;100.00
41632;BME280;37452;51.938;4.624;2022-07-12T03:56:18;77497.56;;;-142.75;100.00
41632;BME280;37452;51.938;4.624;2022-07-12T03:59:02;77487.72;;;-142.75;100.00
41632;BME280;37452;51.938;4.624;2022-07-12T04:01:28;77487.72;;;-142.75;100.00
41632;BME280;37452;51.938;4.624;2022-07-12T04:03:54;77479.84;;;-142.75;100.00
41632;BME280;37452;51.938;4.624;2022-07-12T04:06:20;77479.84;;;-142.75;100.00
41632;BME280;37452;51.938;4.624;2022-07-12T04:08:45;77479.84;;;-142.75;100.00
41632;BME280;37452;51.938;4.624;2022-07-12T04:11:10;77470.00;;;-142.75;100.00
41632;BME280;37452;51.938;4.624;2022-07-12T04:13:35;77464.09;;;-142.75;100.00
41632;BME280;37452;51.938;4.624;2022-07-12T04:16:00;77452.25;;;-142.75;100.00
41632;BME280;37452;51.938;4.624;2022-07-12T04:18:26;77446.34;;;-142.75;100.00
41632;BME280;37452;51.938;4.624;2022-07-12T04:20:51;77438.47;;;-142.75;100.00
41632;BME280;37452;51.938;4.624;2022-07-12T04:23:16;77436.50;;;-142.75;100.00
41632;BME280;37452;51.938;4.624;2022-07-12T04:25:41;77432.56;;;-142.75;100.00
41632;BME280;37452;51.938;4.624;2022-07-12T04:28:06;77424.69;;;-142.75;100.00
41632;BME280;37452;51.938;4.624;2022-07-12T04:30:32;77418.78;;;-142.75;100.00
41632;BME280;37452;51.938;4.624;2022-07-12T04:32:57;77406.97;;;-142.75;100.00
41632;BME280;37452;51.938;4.624;2022-07-12T04:35:22;77401.06;;;-142.75;100.00
41632;BME280;37452;51.938;4.624;2022-07-12T04:37:47;77401.06;;;-142.75;100.00
41632;BME280;37452;51.938;4.624;2022-07-12T04:40:12;77401.06;;;-142.75;100.00
41632;BME280;37452;51.938;4.624;2022-07-12T04:42:38;77385.31;;;-142.75;100.00
41632;BME280;37452;51.938;4.624;2022-07-12T04:45:03;77379.41;;;-142.75;100.00
41632;BME280;37452;51.938;4.624;2022-07-12T04:47:28;77377.44;;;-142.75;100.00
41632;BME280;37452;51.938;4.624;2022-07-12T04:49:53;77369.56;;;-142.75;100.00
41632;BME280;37452;51.938;4.624;2022-07-12T04:52:18;77373.50;;;-142.75;100.00
41632;BME280;37452;51.938;4.624;2022-07-12T04:54:44;77369.56;;;-142.75;100.00
41632;BME280;37452;51.938;4.624;2022-07-12T04:57:09;77363.66;;;-142.75;100.00
41632;BME280;37452;51.938;4.624;2022-07-12T04:59:34;77353.81;;;-142.75;100.00
41632;BME280;37452;51.938;4.624;2022-07-12T05:02:00;77349.88;;;-142.75;100.00
41632;BME280;37452;51.938;4.624;2022-07-12T05:04:25;77334.13;;;-142.75;100.00
41632;BME280;37452;51.938;4.624;2022-07-12T05:06:51;77328.22;;;-142.75;100.00
41632;BME280;37452;51.938;4.624;2022-07-12T05:09:17;77324.28;;;-142.75;100.00
41632;BME280;37452;51.938;4.624;2022-07-12T05:11:42;77312.47;;;-142.75;100.00
41632;BME280;37452;51.938;4.624;2022-07-12T05:14:07;77320.34;;;-142.75;100.00
41632;BME280;37452;51.938;4.624;2022-07-12T05:16:32;77314.44;;;-142.75;100.00
41632;BME280;37452;51.938;4.624;2022-07-12T05:18:59;77316.41;;;-142.75;100.00
41632;BME280;37452;51.938;4.624;2022-07-12T05:21:24;77314.44;;;-142.75;100.00
41632;BME280;37452;51.938;4.624;2022-07-12T05:23:49;77310.50;;;-142.75;100.00
41632;BME280;37452;51.938;4.624;2022-07-12T05:26:14;77306.56;;;-142.75;100.00
41632;BME280;37452;51.938;4.624;2022-07-12T05:28:39;77296.72;;;-142.75;100.00
41632;BME280;37452;51.938;4.624;2022-07-12T05:31:05;77286.88;;;-142.75;100.00
41632;BME280;37452;51.938;4.624;2022-07-12T05:33:30;77282.94;;;-142.75;100.00
41632;BME280;37452;51.938;4.624;2022-07-12T05:35:55;77282.94;;;-142.75;100.00
41632;BME280;37452;51.938;4.624;2022-07-12T05:38:20;77282.94;;;-142.75;100.00
41632;BME280;37452;51.938;4.624;2022-07-12T05:40:45;77275.06;;;-142.75;100.00
41632;BME280;37452;51.938;4.624;2022-07-12T05:43:10;77265.22;;;-142.75;100.00
41632;BME280;37452;51.938;4.624;2022-07-12T05:45:36;77241.59;;;-142.75;100.00
41632;BME280;37452;51.938;4.624;2022-07-12T05:48:01;77235.69;;;-142.75;100.00
41632;BME280;37452;51.938;4.624;2022-07-12T05:50:26;77227.81;;;-142.75;100.00
41632;BME280;37452;51.938;4.624;2022-07-12T05:52:51;77219.94;;;-142.75;100.00
41632;BME280;37452;51.938;4.624;2022-07-12T05:55:35;77223.88;;;-142.75;100.00
41632;BME280;37452;51.938;4.624;2022-07-12T05:58:00;77217.97;;;-142.75;100.00
41632;BME280;37452;51.938;4.624;2022-07-12T06:00:25;77214.03;;;-142.75;100.00
41632;BME280;37452;51.938;4.624;2022-07-12T06:02:51;77206.16;;;-142.75;100.00
41632;BME280;37452;51.938;4.624;2022-07-12T06:05:16;77202.22;;;-142.75;100.00
41632;BME280;37452;51.938;4.624;2022-07-12T06:07:41;77200.25;;;-142.75;100.00
41632;BME280;37452;51.938;4.624;2022-07-12T06:10:06;77188.44;;;-142.75;100.00
41632;BME280;37452;51.938;4.624;2022-07-12T06:12:32;77176.63;;;-142.75;100.00
41632;BME280;37452;51.938;4.624;2022-07-12T06:14:57;77168.75;;;-142.75;100.00
41632;BME280;37452;51.938;4.624;2022-07-12T06:17:22;77158.91;;;-142.75;100.00
41632;BME280;37452;51.938;4.624;2022-07-12T06:19:48;77158.91;;;-142.75;100.00
41632;BME280;37452;51.938;4.624;2022-07-12T06:22:14;77158.91;;;-142.75;100.00
41632;BME280;37452;51.938;4.624;2022-07-12T06:24:39;77158.91;;;-142.75;100.00
41632;BME280;37452;51.938;4.624;2022-07-12T06:27:04;77154.97;;;-142.75;100.00
41632;BME280;37452;51.938;4.624;2022-07-12T06:29:29;77153.00;;;-142.75;100.00
41632;BME280;37452;51.938;4.624;2022-07-12T06:31:55;77151.03;;;-142.75;100.00
41632;BME280;37452;51.938;4.624;2022-07-12T06:34:21;77147.09;;;-142.75;100.00
41632;BME280;37452;51.938;4.624;2022-07-12T06:36:46;77145.13;;;-142.75;100.00
41632;BME280;37452;51.938;4.624;2022-07-12T06:39:12;77139.22;;;-142.75;100.00
41632;BME280;37452;51.938;4.624;2022-07-12T06:41:37;77131.34;;;-142.75;100.00
41632;BME280;37452;51.938;4.624;2022-07-12T06:44:02;77117.56;;;-142.75;100.00
41632;BME280;37452;51.938;4.624;2022-07-12T06:46:27;77099.84;;;-142.75;100.00
41632;BME280;37452;51.938;4.624;2022-07-12T06:48:53;77086.06;;;-142.75;100.00
41632;BME280;37452;51.938;4.624;2022-07-12T06:51:18;77068.34;;;-142.75;100.00
41632;BME280;37452;51.938;4.624;2022-07-12T06:53:43;77050.63;;;-142.75;100.00
41632;BME280;37452;51.938;4.624;2022-07-12T06:56:08;77044.72;;;-142.75;100.00
41632;BME280;37452;51.938;4.624;2022-07-12T06:58:33;77030.94;;;-142.75;100.00
41632;BME280;37452;51.938;4.624;2022-07-12T07:00:59;77011.25;;;-142.75;100.00
41632;BME280;37452;51.938;4.624;2022-07-12T07:03:24;76973.84;;;-142.75;100.00
41632;BME280;37452;51.938;4.624;2022-07-12T07:05:49;76960.06;;;-142.75;100.00
41632;BME280;37452;51.938;4.624;2022-07-12T07:08:15;76944.31;;;-142.75;100.00
41632;BME280;37452;51.938;4.624;2022-07-12T07:10:40;76916.75;;;-142.75;100.00
41632;BME280;37452;51.938;4.624;2022-07-12T07:13:07;76885.25;;;-142.75;100.00
41632;BME280;37452;51.938;4.624;2022-07-12T07:15:32;76873.44;;;-142.75;100.00
41632;BME280;37452;51.938;4.624;2022-07-12T07:17:57;76875.41;;;-142.75;100.00
41632;BME280;37452;51.938;4.624;2022-07-12T07:20:22;76881.31;;;-142.75;100.00
41632;BME280;37452;51.938;4.624;2022-07-12T07:22:48;76855.72;;;-142.75;100.00
41632;BME280;37452;51.938;4.624;2022-07-12T07:25:13;76818.31;;;-142.75;100.00
41632;BME280;37452;51.938;4.624;2022-07-12T07:27:38;76775.03;;;-142.75;100.00
41632;BME280;37452;51.938;4.624;2022-07-12T07:30:04;76731.72;;;-142.75;100.00
41632;BME280;37452;51.938;4.624;2022-07-12T07:32:47;76696.28;;;-142.75;100.00
41632;BME280;37452;51.938;4.624;2022-07-12T07:35:13;76696.28;;;-142.75;100.00
41632;BME280;37452;51.938;4.624;2022-07-12T07:37:38;76668.72;;;-142.75;100.00
41632;BME280;37452;51.938;4.624;2022-07-12T07:40:03;76654.94;;;-142.75;100.00
41632;BME280;37452;51.938;4.624;2022-07-12T07:42:29;76647.06;;;-142.75;100.00
41632;BME280;37452;51.938;4.624;2022-07-12T07:44:54;76649.03;;;-142.75;100.00
41632;BME280;37452;51.938;4.624;2022-07-12T07:47:19;76649.03;;;-142.75;100.00
41632;BME280;37452;51.938;4.624;2022-07-12T07:49:44;76652.97;;;-142.75;100.00
41632;BME280;37452;51.938;4.624;2022-07-12T07:52:09;76649.03;;;-142.75;100.00
41632;BME280;37452;51.938;4.624;2022-07-12T07:54:35;76664.78;;;-142.75;100.00
41632;BME280;37452;51.938;4.624;2022-07-12T07:57:00;76664.78;;;-142.75;100.00
41632;BME280;37452;51.938;4.624;2022-07-12T07:59:25;76668.72;;;-142.75;100.00
41632;BME280;37452;51.938;4.624;2022-07-12T08:01:50;76660.84;;;-142.75;100.00
41632;BME280;37452;51.938;4.624;2022-07-12T08:04:19;76652.97;;;-142.75;100.00
41632;BME280;37452;51.938;4.624;2022-07-12T08:06:44;76658.88;;;-142.75;100.00
41632;BME280;37452;51.938;4.624;2022-07-12T08:09:10;76649.03;;;-142.75;100.00
41632;BME280;37452;51.938;4.624;2022-07-12T08:11:35;76637.22;;;-142.75;100.00
41632;BME280;37452;51.938;4.624;2022-07-12T08:14:01;76621.47;;;-142.75;100.00
41632;BME280;37452;51.938;4.624;2022-07-12T08:16:26;76617.53;;;-142.75;100.00
41632;BME280;37452;51.938;4.624;2022-07-12T08:18:52;76586.03;;;-142.75;100.00
41632;BME280;37452;51.938;4.624;2022-07-12T08:21:17;76540.75;;;-142.75;100.00
41632;BME280;37452;51.938;4.624;2022-07-12T08:23:42;76519.13;;;-142.75;100.00
41632;BME280;37452;51.938;4.624;2022-07-12T08:26:07;76497.47;;;-142.75;100.00
41632;BME280;37452;51.938;4.624;2022-07-12T08:28:33;76491.56;;;-142.75;100.00
41632;BME280;37452;51.938;4.624;2022-07-12T08:30:58;76530.91;;;-142.75;100.00
41632;BME280;37452;51.938;4.624;2022-07-12T08:33:23;76521.09;;;-142.75;100.00
41632;BME280;37452;51.938;4.624;2022-07-12T08:35:48;76542.72;;;-142.75;100.00
41632;BME280;37452;51.938;4.624;2022-07-12T08:38:13;76511.25;;;-142.75;100.00
41632;BME280;37452;51.938;4.624;2022-07-12T08:40:40;76481.72;;;-142.75;100.00
41632;BME280;37452;51.938;4.624;2022-07-12T08:43:05;76446.28;;;-142.75;100.00
41632;BME280;37452;51.938;4.624;2022-07-12T08:45:31;76426.59;;;-142.75;100.00
41632;BME280;37452;51.938;4.624;2022-07-12T08:47:56;76428.56;;;-142.75;100.00
41632;BME280;37452;51.938;4.624;2022-07-12T08:50:21;76420.69;;;-142.75;100.00
41632;BME280;37452;51.938;4.624;2022-07-12T08:52:51;76377.38;;;-142.75;100.00
41632;BME280;37452;51.938;4.624;2022-07-12T08:55:24;76373.44;;;-142.75;100.00
41632;BME280;37452;51.938;4.624;2022-07-12T08:57:50;76401.00;;;-142.75;100.00
41632;BME280;37452;51.938;4.624;2022-07-12T09:00:16;76414.78;;;-142.75;100.00
41632;BME280;37452;51.938;4.624;2022-07-12T09:03:01;76408.88;;;-142.75;100.00
41632;BME280;37452;51.938;4.624;2022-07-12T09:05:31;76373.44;;;-142.75;100.00
41632;BME280;37452;51.938;4.624;2022-07-12T09:08:09;76351.81;;;-142.75;100.00
41632;BME280;37452;51.938;4.624;2022-07-12T09:13:16;76322.28;;;-142.75;100.00
41632;BME280;37452;51.938;4.624;2022-07-12T09:15:42;76318.34;;;-142.75;100.00
41632;BME280;37452;51.938;4.624;2022-07-12T09:18:07;76341.97;;;-142.75;100.00
41632;BME280;37452;51.938;4.624;2022-07-12T09:20:40;76322.28;;;-142.75;100.00
41632;BME280;37452;51.938;4.624;2022-07-12T09:23:07;76308.50;;;-142.75;100.00
41632;BME280;37452;51.938;4.624;2022-07-12T09:25:33;76312.44;;;-142.75;100.00
41632;BME280;37452;51.938;4.624;2022-07-12T09:27:59;76341.97;;;-142.75;100.00
41632;BME280;37452;51.938;4.624;2022-07-12T09:30:25;76340.00;;;-142.75;100.00
41632;BME280;37452;51.938;4.624;2022-07-12T09:33:02;76306.53;;;-142.75;100.00
41632;BME280;37452;51.938;4.624;2022-07-12T09:38:33;76277.00;;;-142.75;100.00
41632;BME280;37452;51.938;4.624;2022-07-12T09:40:59;76253.38;;;-142.75;100.00
41632;BME280;37452;51.938;4.624;2022-07-12T09:43:24;76243.53;;;-142.75;100.00
41632;BME280;37452;51.938;4.624;2022-07-12T09:45:51;76210.06;;;-142.75;100.00
41632;BME280;37452;51.938;4.624;2022-07-12T09:48:16;76188.44;;;-142.75;100.00
41632;BME280;37452;51.938;4.624;2022-07-12T09:50:48;76162.84;;;-142.75;100.00
41632;BME280;37452;51.938;4.624;2022-07-12T09:53:15;76145.13;;;-142.75;100.00
41632;BME280;37452;51.938;4.624;2022-07-12T09:55:44;76091.97;;;-142.75;100.00
41632;BME280;37452;51.938;4.624;2022-07-12T09:58:09;76109.69;;;-142.75;96.71
41632;BME280;37452;51.938;4.624;2022-07-12T10:00:37;76068.38;;;-142.75;94.18
41632;BME280;37452;51.938;4.624;2022-07-12T10:03:03;76090.00;;;-142.75;95.92
41632;BME280;37452;51.938;4.624;2022-07-12T10:05:29;76082.13;;;-142.75;90.31
41632;BME280;37452;51.938;4.624;2022-07-12T10:07:54;76127.41;;;-142.75;88.78
41632;BME280;37452;51.938;4.624;2022-07-12T10:10:20;76105.75;;;-142.75;87.88
41632;BME280;37452;51.938;4.624;2022-07-12T10:12:46;76131.34;;;-142.75;94.13
41632;BME280;37452;51.938;4.624;2022-07-12T10:15:15;76151.03;;;-142.75;94.97
41632;BME280;37452;51.938;4.624;2022-07-12T10:17:41;76160.88;;;-142.75;97.36
41632;BME280;37452;51.938;4.624;2022-07-12T10:20:19;76141.19;;;-142.75;97.42
41632;BME280;37452;51.938;4.624;2022-07-12T10:22:47;76135.28;;;-142.75;100.00
41632;BME280;37452;51.938;4.624;2022-07-12T10:25:27;76137.25;;;-142.75;99.63
41632;BME280;37452;51.938;4.624;2022-07-12T10:27:52;76101.81;;;-142.75;100.00
41632;BME280;37452;51.938;4.624;2022-07-12T10:30:19;76086.06;;;-142.75;95.23
41632;BME280;37452;51.938;4.624;2022-07-12T10:32:45;76066.41;;;-142.75;87.28
41632;BME280;37452;51.938;4.624;2022-07-12T10:35:17;76017.19;;;-142.75;94.52
41632;BME280;37452;51.938;4.624;2022-07-12T10:38:13;75995.53;;;-142.75;91.75
41632;BME280;37452;51.938;4.624;2022-07-12T10:40:28;76027.03;;;-142.75;77.95
41632;BME280;37452;51.938;4.624;2022-07-12T10:47:55;76040.81;;;-142.75;80.57
41632;BME280;37452;51.938;4.624;2022-07-12T10:50:49;76054.59;;;-142.75;81.54
41632;BME280;37452;51.938;4.624;2022-07-12T10:58:36;76017.19;;;-142.75;83.03
41632;BME280;37452;51.938;4.624;2022-07-12T11:01:02;75981.75;;;-142.75;78.25
41632;BME280;37452;51.938;4.624;2022-07-12T11:03:31;75954.22;;;-142.75;83.12
41632;BME280;37452;51.938;4.624;2022-07-12T11:06:01;75916.81;;;-142.75;82.35
41632;BME280;37452;51.938;4.624;2022-07-12T11:08:27;75928.63;;;-142.75;70.85
41632;BME280;37452;51.938;4.624;2022-07-12T11:10:56;75895.16;;;-142.75;72.19
41632;BME280;37452;51.938;4.624;2022-07-12T11:13:22;75834.16;;;-142.75;81.15
41632;BME280;37452;51.938;4.624;2022-07-12T11:15:55;75818.41;;;-142.75;68.63
41632;BME280;37452;51.938;4.624;2022-07-12T11:18:27;75897.13;;;-142.75;63.10
41632;BME280;37452;51.938;4.624;2022-07-12T11:20:54;75869.56;;;-142.75;67.70
41632;BME280;37452;51.938;4.624;2022-07-12T11:23:20;75903.03;;;-142.75;67.33
41632;BME280;37452;51.938;4.624;2022-07-12T11:25:45;75877.44;;;-142.75;66.38
41632;BME280;37452;51.938;4.624;2022-07-12T11:28:10;75853.84;;;-142.75;64.24
41632;BME280;37452;51.938;4.624;2022-07-12T11:30:35;75810.53;;;-142.75;68.01
41632;BME280;37452;51.938;4.624;2022-07-12T11:33:01;75779.03;;;-142.75;69.31
41632;BME280;37452;51.938;4.624;2022-07-12T11:35:26;75810.53;;;-142.75;63.79
41632;BME280;37452;51.938;4.624;2022-07-12T11:37:53;75794.78;;;-142.75;63.66
41632;BME280;37452;51.938;4.624;2022-07-12T11:40:25;75867.59;;;-142.75;66.95
41632;BME280;37452;51.938;4.624;2022-07-12T11:42:52;75836.13;;;-142.75;70.78
41632;BME280;37452;51.938;4.624;2022-07-12T11:45:17;75818.41;;;-142.75;64.42
41632;BME280;37452;51.938;4.624;2022-07-12T11:47:42;75771.16;;;-142.75;71.13
41632;BME280;37452;51.938;4.624;2022-07-12T11:50:07;75769.19;;;-142.75;65.56
41632;BME280;37452;51.938;4.624;2022-07-12T11:52:34;75759.38;;;-142.75;65.39
41632;BME280;37452;51.938;4.624;2022-07-12T11:55:01;75792.81;;;-142.75;67.05
41632;BME280;37452;51.938;4.624;2022-07-12T11:57:31;75802.66;;;-142.75;68.24
41632;BME280;37452;51.938;4.624;2022-07-12T11:59:57;75808.56;;;-142.75;67.69
41632;BME280;37452;51.938;4.624;2022-07-12T12:02:22;75855.81;;;-142.75;61.81
41632;BME280;37452;51.938;4.624;2022-07-12T12:07:17;75853.84;;;-142.75;65.29
41632;BME280;37452;51.938;4.624;2022-07-12T12:12:23;75792.81;;;-142.75;63.11
41632;BME280;37452;51.938;4.624;2022-07-12T12:14:49;75800.69;;;-142.75;63.45
41632;BME280;37452;51.938;4.624;2022-07-12T12:17:14;75812.50;;;-142.75;61.07
41632;BME280;37452;51.938;4.624;2022-07-12T12:19:42;75786.91;;;-142.75;62.86
41632;BME280;37452;51.938;4.624;2022-07-12T12:22:27;75759.38;;;-142.75;66.11
41632;BME280;37452;51.938;4.624;2022-07-12T12:24:59;75790.84;;;-142.75;61.33
41632;BME280;37452;51.938;4.624;2022-07-12T12:27:24;75781.00;;;-142.75;55.90
41632;BME280;37452;51.938;4.624;2022-07-12T12:29:50;75777.06;;;-142.75;55.47
41632;BME280;37452;51.938;4.624;2022-07-12T12:32:17;75798.72;;;-142.75;55.70
41632;BME280;37452;51.938;4.624;2022-07-12T12:34:42;75842.03;;;-142.75;61.87
41632;BME280;37452;51.938;4.624;2022-07-12T12:37:27;75857.78;;;-142.75;61.71
41632;BME280;37452;51.938;4.624;2022-07-12T12:39:53;75861.69;;;-142.75;63.82
41632;BME280;37452;51.938;4.624;2022-07-12T12:42:23;75873.50;;;-142.75;61.62
41632;BME280;37452;51.938;4.624;2022-07-12T12:44:48;75863.66;;;-142.75;62.36
41632;BME280;37452;51.938;4.624;2022-07-12T12:47:13;75863.66;;;-142.75;60.01
41632;BME280;37452;51.938;4.624;2022-07-12T12:49:58;75881.38;;;-142.75;61.23
41632;BME280;37452;51.938;4.624;2022-07-12T12:52:27;75885.31;;;-142.75;62.62